sensor_id;sensor_type;location;lat;lon;timestamp;temperature;humidity
36186;DHT22;22228;53.222;7.446;2023-07-08T00:05:02;16.60;99.90
36186;DHT22;22228;53.222;7.446;2023-07-08T00:07:23;16.60;1.00
36186;DHT22;22228;53.222;7.446;2023-07-08T00:09:49;16.50;1.00
36186;DHT22;22228;53.222;7.446;2023-07-08T00:12:37;16.50;1.00
36186;DHT22;22228;53.222;7.446;2023-07-08T03:00:35;15.40;1.00
36186;DHT22;22228;53.222;7.446;2023-07-08T03:02:58;15.40;1.00
36186;DHT22;22228;53.222;7.446;2023-07-08T03:05:21;15.40;1.00
36186;DHT22;22228;53.222;7.446;2023-07-08T03:07:43;15.40;99.90
36186;DHT22;22228;53.222;7.446;2023-07-08T03:10:05;15.40;1.00
36186;DHT22;22228;53.222;7.446;2023-07-08T03:12:29;15.40;1.00
36186;DHT22;22228;53.222;7.446;2023-07-08T03:14:50;15.30;1.00
36186;DHT22;22228;53.222;7.446;2023-07-08T03:17:36;15.30;99.90
36186;DHT22;22228;53.222;7.446;2023-07-08T03:19:57;15.40;99.90
36186;DHT22;22228;53.222;7.446;2023-07-08T03:22:44;15.40;99.90
36186;DHT22;22228;53.222;7.446;2023-07-08T03:25:05;15.30;1.00
36186;DHT22;22228;53.222;7.446;2023-07-08T03:27:26;15.30;1.00
36186;DHT22;22228;53.222;7.446;2023-07-08T03:30:15;15.40;1.00
36186;DHT22;22228;53.222;7.446;2023-07-08T03:32:39;15.30;99.90
36186;DHT22;22228;53.222;7.446;2023-07-08T03:34:59;15.30;1.00
36186;DHT22;22228;53.222;7.446;2023-07-08T03:37:20;15.30;99.90
36186;DHT22;22228;53.222;7.446;2023-07-08T03:39:49;15.40;99.90
36186;DHT22;22228;53.222;7.446;2023-07-08T03:42:09;15.40;99.90
36186;DHT22;22228;53.222;7.446;2023-07-08T03:44:31;15.40;99.90
36186;DHT22;22228;53.222;7.446;2023-07-08T03:46:52;15.40;99.90
36186;DHT22;22228;53.222;7.446;2023-07-08T03:49:16;15.40;99.90
36186;DHT22;22228;53.222;7.446;2023-07-08T03:51:39;15.40;99.90
36186;DHT22;22228;53.222;7.446;2023-07-08T03:54:01;15.40;99.90
36186;DHT22;22228;53.222;7.446;2023-07-08T03:56:49;15.40;99.90
36186;DHT22;22228;53.222;7.446;2023-07-08T03:59:17;15.40;99.90
36186;DHT22;22228;53.222;7.446;2023-07-08T04:01:45;15.40;99.90
36186;DHT22;22228;53.222;7.446;2023-07-08T04:04:06;15.50;1.00
36186;DHT22;22228;53.222;7.446;2023-07-08T04:06:54;15.50;1.00
36186;DHT22;22228;53.222;7.446;2023-07-08T04:09:21;15.50;1.00
36186;DHT22;22228;53.222;7.446;2023-07-08T04:11:41;15.50;1.00
36186;DHT22;22228;53.222;7.446;2023-07-08T04:14:04;15.50;1.00
36186;DHT22;22228;53.222;7.446;2023-07-08T04:16:33;15.60;1.00
36186;DHT22;22228;53.222;7.446;2023-07-08T04:18:56;15.60;99.90
36186;DHT22;22228;53.222;7.446;2023-07-08T04:21:17;15.60;99.90
36186;DHT22;22228;53.222;7.446;2023-07-08T04:23:46;15.60;99.90
36186;DHT22;22228;53.222;7.446;2023-07-08T04:26:08;15.60;99.90
36186;DHT22;22228;53.222;7.446;2023-07-08T04:28:30;15.60;1.00
36186;DHT22;22228;53.222;7.446;2023-07-08T04:30:51;15.60;94.70
36186;DHT22;22228;53.222;7.446;2023-07-08T04:33:15;15.60;98.20
36186;DHT22;22228;53.222;7.446;2023-07-08T04:36:11;15.70;99.90
36186;DHT22;22228;53.222;7.446;2023-07-08T04:38:33;15.70;99.90
36186;DHT22;22228;53.222;7.446;2023-07-08T04:40:57;15.70;1.00
36186;DHT22;22228;53.222;7.446;2023-07-08T04:43:19;15.80;99.90
36186;DHT22;22228;53.222;7.446;2023-07-08T04:46:14;15.80;99.90
36186;DHT22;22228;53.222;7.446;2023-07-08T04:48:37;15.80;99.90
36186;DHT22;22228;53.222;7.446;2023-07-08T04:50:57;15.80;99.90
36186;DHT22;22228;53.222;7.446;2023-07-08T04:53:43;15.80;99.90
36186;DHT22;22228;53.222;7.446;2023-07-08T04:56:05;15.80;1.00
36186;DHT22;22228;53.222;7.446;2023-07-08T04:58:25;15.90;1.00
36186;DHT22;22228;53.222;7.446;2023-07-08T05:00:46;15.90;99.90
36186;DHT22;22228;53.222;7.446;2023-07-08T05:03:33;16.00;1.00
36186;DHT22;22228;53.222;7.446;2023-07-08T05:05:54;16.00;1.00
36186;DHT22;22228;53.222;7.446;2023-07-08T05:08:14;16.10;1.00
36186;DHT22;22228;53.222;7.446;2023-07-08T05:10:42;16.10;1.00
36186;DHT22;22228;53.222;7.446;2023-07-08T05:13:05;16.20;1.00
36186;DHT22;22228;53.222;7.446;2023-07-08T05:15:51;16.20;1.00
36186;DHT22;22228;53.222;7.446;2023-07-08T05:18:36;16.30;1.00
36186;DHT22;22228;53.222;7.446;2023-07-08T05:20:58;16.30;1.00
36186;DHT22;22228;53.222;7.446;2023-07-08T05:23:18;16.40;1.00
36186;DHT22;22228;53.222;7.446;2023-07-08T05:25:39;16.40;1.00
36186;DHT22;22228;53.222;7.446;2023-07-08T05:28:25;16.40;1.00
36186;DHT22;22228;53.222;7.446;2023-07-08T05:31:10;16.50;1.00
36186;DHT22;22228;53.222;7.446;2023-07-08T05:33:32;16.50;1.00
36186;DHT22;22228;53.222;7.446;2023-07-08T05:35:54;16.60;1.00
36186;DHT22;22228;53.222;7.446;2023-07-08T05:38:15;16.70;99.90
36186;DHT22;22228;53.222;7.446;2023-07-08T05:40:36;16.80;1.00
36186;DHT22;22228;53.222;7.446;2023-07-08T05:42:57;17.00;1.00
36186;DHT22;22228;53.222;7.446;2023-07-08T05:45:19;17.00;1.00
36186;DHT22;22228;53.222;7.446;2023-07-08T05:48:04;17.10;1.00
36186;DHT22;22228;53.222;7.446;2023-07-08T05:50:50;17.20;99.90
36186;DHT22;22228;53.222;7.446;2023-07-08T05:53:39;17.40;1.00
36186;DHT22;22228;53.222;7.446;2023-07-08T05:55:59;17.50;1.00
36186;DHT22;22228;53.222;7.446;2023-07-08T05:58:20;17.60;1.00
36186;DHT22;22228;53.222;7.446;2023-07-08T06:00:53;17.70;1.00
36186;DHT22;22228;53.222;7.446;2023-07-08T06:03:14;17.90;1.00
36186;DHT22;22228;53.222;7.446;2023-07-08T06:05:37;18.00;99.90
36186;DHT22;22228;53.222;7.446;2023-07-08T06:07:58;18.20;99.90
36186;DHT22;22228;53.222;7.446;2023-07-08T06:10:24;18.30;99.90
36186;DHT22;22228;53.222;7.446;2023-07-08T06:12:46;18.50;1.00
36186;DHT22;22228;53.222;7.446;2023-07-08T06:15:32;18.60;1.00
36186;DHT22;22228;53.222;7.446;2023-07-08T06:17:55;18.80;1.00
36186;DHT22;22228;53.222;7.446;2023-07-08T06:20:21;18.90;1.00
36186;DHT22;22228;53.222;7.446;2023-07-08T06:23:10;19.00;1.00
36186;DHT22;22228;53.222;7.446;2023-07-08T06:25:32;19.20;1.00
36186;DHT22;22228;53.222;7.446;2023-07-08T06:28:17;19.30;99.90
36186;DHT22;22228;53.222;7.446;2023-07-08T06:30:39;19.40;99.90
36186;DHT22;22228;53.222;7.446;2023-07-08T06:33:07;19.50;99.90
36186;DHT22;22228;53.222;7.446;2023-07-08T06:35:29;19.70;99.90
36186;DHT22;22228;53.222;7.446;2023-07-08T06:37:50;19.80;99.90
36186;DHT22;22228;53.222;7.446;2023-07-08T06:40:11;19.90;99.90
36186;DHT22;22228;53.222;7.446;2023-07-08T06:42:33;20.00;99.90
36186;DHT22;22228;53.222;7.446;2023-07-08T06:45:01;20.10;14.60
36186;DHT22;22228;53.222;7.446;2023-07-08T06:47:29;20.20;1.00
36186;DHT22;22228;53.222;7.446;2023-07-08T06:49:50;20.30;1.00
36186;DHT22;22228;53.222;7.446;2023-07-08T06:52:38;20.40;1.00
36186;DHT22;22228;53.222;7.446;2023-07-08T06:54:58;20.60;1.00
36186;DHT22;22228;53.222;7.446;2023-07-08T06:57:19;20.60;1.00
36186;DHT22;22228;53.222;7.446;2023-07-08T06:59:40;20.70;1.00
36186;DHT22;22228;53.222;7.446;2023-07-08T07:02:00;20.90;1.00
36186;DHT22;22228;53.222;7.446;2023-07-08T07:04:46;21.00;1.00
36186;DHT22;22228;53.222;7.446;2023-07-08T07:07:09;21.20;1.00
36186;DHT22;22228;53.222;7.446;2023-07-08T07:09:30;21.30;1.00
36186;DHT22;22228;53.222;7.446;2023-07-08T07:11:51;21.40;1.00
36186;DHT22;22228;53.222;7.446;2023-07-08T07:14:12;21.50;1.00
36186;DHT22;22228;53.222;7.446;2023-07-08T07:16:34;21.60;1.00
36186;DHT22;22228;53.222;7.446;2023-07-08T07:18:55;21.80;1.00
36186;DHT22;22228;53.222;7.446;2023-07-08T07:21:41;21.90;1.00
36186;DHT22;22228;53.222;7.446;2023-07-08T07:24:07;22.00;1.00
36186;DHT22;22228;53.222;7.446;2023-07-08T07:26:53;22.20;1.00
36186;DHT22;22228;53.222;7.446;2023-07-08T07:29:16;22.30;1.00
36186;DHT22;22228;53.222;7.446;2023-07-08T07:31:37;22.40;1.00
36186;DHT22;22228;53.222;7.446;2023-07-08T07:33:59;22.50;1.00
36186;DHT22;22228;53.222;7.446;2023-07-08T07:36:22;22.60;1.00
36186;DHT22;22228;53.222;7.446;2023-07-08T07:38:42;22.70;29.20
36186;DHT22;22228;53.222;7.446;2023-07-08T07:41:05;22.80;1.00
36186;DHT22;22228;53.222;7.446;2023-07-08T07:44:00;22.90;1.00
36186;DHT22;22228;53.222;7.446;2023-07-08T07:46:21;23.00;1.00
36186;DHT22;22228;53.222;7.446;2023-07-08T07:48:42;23.10;1.00
36186;DHT22;22228;53.222;7.446;2023-07-08T07:51:04;23.20;1.00
36186;DHT22;22228;53.222;7.446;2023-07-08T07:53:52;23.40;1.00
36186;DHT22;22228;53.222;7.446;2023-07-08T07:56:39;23.50;1.00
36186;DHT22;22228;53.222;7.446;2023-07-08T07:59:00;23.60;1.00
36186;DHT22;22228;53.222;7.446;2023-07-08T08:01:21;23.70;1.00
36186;DHT22;22228;53.222;7.446;2023-07-08T08:03:46;23.80;1.00
36186;DHT22;22228;53.222;7.446;2023-07-08T08:06:10;23.80;21.50
36186;DHT22;22228;53.222;7.446;2023-07-08T08:08:31;23.90;1.00
36186;DHT22;22228;53.222;7.446;2023-07-08T08:10:53;24.10;99.90
36186;DHT22;22228;53.222;7.446;2023-07-08T08:13:15;24.10;99.90
36186;DHT22;22228;53.222;7.446;2023-07-08T08:15:43;24.20;1.00
36186;DHT22;22228;53.222;7.446;2023-07-08T08:18:31;24.40;99.90
36186;DHT22;22228;53.222;7.446;2023-07-08T08:20:51;24.50;99.90
36186;DHT22;22228;53.222;7.446;2023-07-08T08:23:12;24.70;1.00
36186;DHT22;22228;53.222;7.446;2023-07-08T08:26:00;24.80;1.00
36186;DHT22;22228;53.222;7.446;2023-07-08T08:28:26;24.90;1.00
36186;DHT22;22228;53.222;7.446;2023-07-08T08:30:47;25.00;99.90
36186;DHT22;22228;53.222;7.446;2023-07-08T08:33:09;25.10;99.90
36186;DHT22;22228;53.222;7.446;2023-07-08T08:36:02;25.20;99.90
36186;DHT22;22228;53.222;7.446;2023-07-08T08:38:22;25.40;1.00
36186;DHT22;22228;53.222;7.446;2023-07-08T08:41:12;25.40;1.00
36186;DHT22;22228;53.222;7.446;2023-07-08T08:44:00;25.60;99.90
36186;DHT22;22228;53.222;7.446;2023-07-08T08:46:29;25.70;99.90
36186;DHT22;22228;53.222;7.446;2023-07-08T08:48:56;25.80;1.00
36186;DHT22;22228;53.222;7.446;2023-07-08T08:51:20;26.00;1.00
36186;DHT22;22228;53.222;7.446;2023-07-08T08:53:41;26.20;99.90
36186;DHT22;22228;53.222;7.446;2023-07-08T08:56:09;26.30;1.00
36186;DHT22;22228;53.222;7.446;2023-07-08T08:58:35;26.30;1.00
36186;DHT22;22228;53.222;7.446;2023-07-08T09:01:11;26.40;99.90
36186;DHT22;22228;53.222;7.446;2023-07-08T09:04:00;26.50;1.00
36186;DHT22;22228;53.222;7.446;2023-07-08T09:06:48;26.70;1.00
36186;DHT22;22228;53.222;7.446;2023-07-08T09:09:17;26.80;1.00
36186;DHT22;22228;53.222;7.446;2023-07-08T09:11:44;26.90;1.00
36186;DHT22;22228;53.222;7.446;2023-07-08T09:14:32;27.00;1.00
36186;DHT22;22228;53.222;7.446;2023-07-08T09:17:14;27.20;99.90
36186;DHT22;22228;53.222;7.446;2023-07-08T09:19:41;27.30;99.90
36186;DHT22;22228;53.222;7.446;2023-07-08T09:22:32;27.50;99.90
36186;DHT22;22228;53.222;7.446;2023-07-08T09:24:58;27.60;99.90
36186;DHT22;22228;53.222;7.446;2023-07-08T09:27:21;27.70;99.90
36186;DHT22;22228;53.222;7.446;2023-07-08T09:29:43;27.90;99.90
36186;DHT22;22228;53.222;7.446;2023-07-08T09:32:15;28.00;99.90
36186;DHT22;22228;53.222;7.446;2023-07-08T09:34:41;28.10;99.90
36186;DHT22;22228;53.222;7.446;2023-07-08T09:37:04;28.10;99.90
36186;DHT22;22228;53.222;7.446;2023-07-08T09:39:44;28.30;99.90
36186;DHT22;22228;53.222;7.446;2023-07-08T09:42:07;28.40;56.10
36186;DHT22;22228;53.222;7.446;2023-07-08T09:44:28;28.50;99.90
36186;DHT22;22228;53.222;7.446;2023-07-08T09:47:24;28.60;99.90
36186;DHT22;22228;53.222;7.446;2023-07-08T09:49:47;28.70;1.00
36186;DHT22;22228;53.222;7.446;2023-07-08T09:52:35;28.70;1.00
36186;DHT22;22228;53.222;7.446;2023-07-08T09:55:21;28.80;1.00
36186;DHT22;22228;53.222;7.446;2023-07-08T09:57:49;28.90;1.00
36186;DHT22;22228;53.222;7.446;2023-07-08T10:00:13;28.90;99.90
36186;DHT22;22228;53.222;7.446;2023-07-08T10:02:41;29.10;1.00
36186;DHT22;22228;53.222;7.446;2023-07-08T10:05:12;29.10;1.00
36186;DHT22;22228;53.222;7.446;2023-07-08T10:07:33;29.20;1.00
36186;DHT22;22228;53.222;7.446;2023-07-08T10:13:23;29.40;1.00
36186;DHT22;22228;53.222;7.446;2023-07-08T10:15:56;29.50;1.00
36186;DHT22;22228;53.222;7.446;2023-07-08T10:18:25;29.60;99.90
36186;DHT22;22228;53.222;7.446;2023-07-08T10:20:57;29.70;1.00
36186;DHT22;22228;53.222;7.446;2023-07-08T10:23:27;29.90;1.00
36186;DHT22;22228;53.222;7.446;2023-07-08T10:26:12;30.00;99.90
36186;DHT22;22228;53.222;7.446;2023-07-08T10:29:03;30.10;99.90
36186;DHT22;22228;53.222;7.446;2023-07-08T10:31:34;30.30;1.00
36186;DHT22;22228;53.222;7.446;2023-07-08T10:34:23;30.40;1.00
36186;DHT22;22228;53.222;7.446;2023-07-08T10:36:51;30.70;1.00
36186;DHT22;22228;53.222;7.446;2023-07-08T10:39:35;30.80;1.00
36186;DHT22;22228;53.222;7.446;2023-07-08T10:42:07;30.80;1.00
36186;DHT22;22228;53.222;7.446;2023-07-08T10:44:35;30.80;1.00
36186;DHT22;22228;53.222;7.446;2023-07-08T10:47:07;31.10;1.00
36186;DHT22;22228;53.222;7.446;2023-07-08T10:50:08;31.30;1.00
36186;DHT22;22228;53.222;7.446;2023-07-08T10:53:03;31.60;1.00
36186;DHT22;22228;53.222;7.446;2023-07-08T10:55:32;31.90;1.00
36186;DHT22;22228;53.222;7.446;2023-07-08T10:58:25;32.10;1.00
36186;DHT22;22228;53.222;7.446;2023-07-08T11:01:29;32.40;99.90
36186;DHT22;22228;53.222;7.446;2023-07-08T11:04:22;32.60;99.90
36186;DHT22;22228;53.222;7.446;2023-07-08T11:06:52;33.10;99.90
36186;DHT22;22228;53.222;7.446;2023-07-08T11:09:18;33.50;99.90
36186;DHT22;22228;53.222;7.446;2023-07-08T11:11:53;33.80;99.90
36186;DHT22;22228;53.222;7.446;2023-07-08T11:14:16;34.20;1.00
36186;DHT22;22228;53.222;7.446;2023-07-08T11:16:42;34.40;99.90
36186;DHT22;22228;53.222;7.446;2023-07-08T11:19:15;34.50;1.00
36186;DHT22;22228;53.222;7.446;2023-07-08T11:21:46;34.60;99.90
36186;DHT22;22228;53.222;7.446;2023-07-08T11:24:15;34.90;64.20
36186;DHT22;22228;53.222;7.446;2023-07-08T11:26:44;34.90;1.00
36186;DHT22;22228;53.222;7.446;2023-07-08T11:29:14;35.10;99.90
36186;DHT22;22228;53.222;7.446;2023-07-08T11:32:06;35.70;1.00
36186;DHT22;22228;53.222;7.446;2023-07-08T11:34:35;36.00;99.90
36186;DHT22;22228;53.222;7.446;2023-07-08T11:36:58;36.20;99.90
36186;DHT22;22228;53.222;7.446;2023-07-08T11:39:45;36.30;99.90
36186;DHT22;22228;53.222;7.446;2023-07-08T11:42:19;36.70;99.90
36186;DHT22;22228;53.222;7.446;2023-07-08T11:44:50;36.80;1.00
36186;DHT22;22228;53.222;7.446;2023-07-08T11:47:16;37.10;1.00
36186;DHT22;22228;53.222;7.446;2023-07-08T11:49:39;37.60;99.90
36186;DHT22;22228;53.222;7.446;2023-07-08T11:52:02;37.80;1.00
36186;DHT22;22228;53.222;7.446;2023-07-08T11:54:30;37.80;99.90
36186;DHT22;22228;53.222;7.446;2023-07-08T11:56:59;38.20;99.90
36186;DHT22;22228;53.222;7.446;2023-07-08T11:59:23;38.30;99.90
36186;DHT22;22228;53.222;7.446;2023-07-08T12:01:51;38.40;99.90
36186;DHT22;22228;53.222;7.446;2023-07-08T12:04:23;38.60;1.00
36186;DHT22;22228;53.222;7.446;2023-07-08T12:07:16;38.80;1.00
36186;DHT22;22228;53.222;7.446;2023-07-08T12:09:49;38.80;1.00
36186;DHT22;22228;53.222;7.446;2023-07-08T12:12:31;38.80;99.90
36186;DHT22;22228;53.222;7.446;2023-07-08T12:15:21;39.20;1.00
36186;DHT22;22228;53.222;7.446;2023-07-08T12:20:58;39.20;1.00
36186;DHT22;22228;53.222;7.446;2023-07-08T12:23:23;39.10;99.90
36186;DHT22;22228;53.222;7.446;2023-07-08T12:25:43;38.90;99.90
36186;DHT22;22228;53.222;7.446;2023-07-08T12:28:36;39.10;1.00
36186;DHT22;22228;53.222;7.446;2023-07-08T12:30:56;38.90;1.00
36186;DHT22;22228;53.222;7.446;2023-07-08T12:33:25;39.10;99.90
36186;DHT22;22228;53.222;7.446;2023-07-08T12:35:50;39.00;99.90
36186;DHT22;22228;53.222;7.446;2023-07-08T12:38:18;39.50;1.00
36186;DHT22;22228;53.222;7.446;2023-07-08T12:40:40;39.80;1.00
36186;DHT22;22228;53.222;7.446;2023-07-08T12:43:02;39.30;1.00
36186;DHT22;22228;53.222;7.446;2023-07-08T12:45:26;39.50;1.00
36186;DHT22;22228;53.222;7.446;2023-07-08T12:48:11;39.30;1.00
36186;DHT22;22228;53.222;7.446;2023-07-08T12:50:32;39.50;1.00
36186;DHT22;22228;53.222;7.446;2023-07-08T12:53:00;39.80;6.60
36186;DHT22;22228;53.222;7.446;2023-07-08T12:55:50;40.00;1.00
36186;DHT22;22228;53.222;7.446;2023-07-08T12:58:14;40.50;1.00
36186;DHT22;22228;53.222;7.446;2023-07-08T13:01:06;40.50;99.90
36186;DHT22;22228;53.222;7.446;2023-07-08T13:03:29;40.70;99.90
36186;DHT22;22228;53.222;7.446;2023-07-08T13:05:52;40.50;1.00
36186;DHT22;22228;53.222;7.446;2023-07-08T13:08:14;40.90;1.00
36186;DHT22;22228;53.222;7.446;2023-07-08T13:10:36;41.10;1.00
36186;DHT22;22228;53.222;7.446;2023-07-08T13:13:24;41.40;1.00
36186;DHT22;22228;53.222;7.446;2023-07-08T13:15:49;41.50;99.90
36186;DHT22;22228;53.222;7.446;2023-07-08T13:18:15;41.80;99.90
36186;DHT22;22228;53.222;7.446;2023-07-08T13:20:38;41.50;1.00
36186;DHT22;22228;53.222;7.446;2023-07-08T13:23:01;41.80;1.00
36186;DHT22;22228;53.222;7.446;2023-07-08T13:25:28;41.90;1.00
36186;DHT22;22228;53.222;7.446;2023-07-08T13:28:00;41.50;1.00
36186;DHT22;22228;53.222;7.446;2023-07-08T13:30:24;41.40;99.90
36186;DHT22;22228;53.222;7.446;2023-07-08T13:33:16;41.50;99.90
36186;DHT22;22228;53.222;7.446;2023-07-08T13:36:04;41.90;99.90
36186;DHT22;22228;53.222;7.446;2023-07-08T13:38:32;42.20;99.90
36186;DHT22;22228;53.222;7.446;2023-07-08T13:41:01;42.00;99.90
36186;DHT22;22228;53.222;7.446;2023-07-08T13:43:23;42.00;99.90
36186;DHT22;22228;53.222;7.446;2023-07-08T13:45:46;42.40;99.90
36186;DHT22;22228;53.222;7.446;2023-07-08T13:48:36;42.20;99.90
36186;DHT22;22228;53.222;7.446;2023-07-08T13:51:03;42.60;99.90
36186;DHT22;22228;53.222;7.446;2023-07-08T13:53:26;42.90;99.90
36186;DHT22;22228;53.222;7.446;2023-07-08T13:56:14;43.10;99.90
36186;DHT22;22228;53.222;7.446;2023-07-08T13:58:34;43.10;99.90
36186;DHT22;22228;53.222;7.446;2023-07-08T14:01:26;42.80;99.90
36186;DHT22;22228;53.222;7.446;2023-07-08T14:03:51;42.60;99.90
36186;DHT22;22228;53.222;7.446;2023-07-08T14:06:38;42.70;99.90
36186;DHT22;22228;53.222;7.446;2023-07-08T14:09:06;43.60;99.90
36186;DHT22;22228;53.222;7.446;2023-07-08T14:11:35;43.80;99.90
36186;DHT22;22228;53.222;7.446;2023-07-08T14:14:22;43.90;99.90
36186;DHT22;22228;53.222;7.446;2023-07-08T14:16:45;44.10;99.90
36186;DHT22;22228;53.222;7.446;2023-07-08T14:19:33;43.90;99.90
36186;DHT22;22228;53.222;7.446;2023-07-08T14:22:03;43.90;99.90
36186;DHT22;22228;53.222;7.446;2023-07-08T14:24:27;43.80;99.90
36186;DHT22;22228;53.222;7.446;2023-07-08T14:26:48;44.10;99.90
36186;DHT22;22228;53.222;7.446;2023-07-08T14:29:09;44.50;99.90
36186;DHT22;22228;53.222;7.446;2023-07-08T14:31:34;44.70;99.90
36186;DHT22;22228;53.222;7.446;2023-07-08T14:34:00;44.20;99.90
36186;DHT22;22228;53.222;7.446;2023-07-08T14:36:30;44.30;99.90
36186;DHT22;22228;53.222;7.446;2023-07-08T14:38:56;44.40;99.90
36186;DHT22;22228;53.222;7.446;2023-07-08T14:41:42;44.20;99.90
36186;DHT22;22228;53.222;7.446;2023-07-08T14:44:18;44.40;99.90
36186;DHT22;22228;53.222;7.446;2023-07-08T14:46:40;44.60;99.90
36186;DHT22;22228;53.222;7.446;2023-07-08T14:49:27;44.60;99.90
36186;DHT22;22228;53.222;7.446;2023-07-08T14:51:55;44.50;99.90
36186;DHT22;22228;53.222;7.446;2023-07-08T14:54:17;45.00;99.90
36186;DHT22;22228;53.222;7.446;2023-07-08T14:56:39;45.00;99.90
36186;DHT22;22228;53.222;7.446;2023-07-08T14:59:27;44.80;99.90
36186;DHT22;22228;53.222;7.446;2023-07-08T15:02:18;44.60;99.90
36186;DHT22;22228;53.222;7.446;2023-07-08T15:04:39;44.50;99.90
36186;DHT22;22228;53.222;7.446;2023-07-08T15:07:10;44.40;99.90
36186;DHT22;22228;53.222;7.446;2023-07-08T15:09:39;44.10;99.90
36186;DHT22;22228;53.222;7.446;2023-07-08T15:11:59;43.40;99.90
36186;DHT22;22228;53.222;7.446;2023-07-08T15:17:20;41.10;99.90
36186;DHT22;22228;53.222;7.446;2023-07-08T15:20:13;40.10;99.90
36186;DHT22;22228;53.222;7.446;2023-07-08T15:23:02;38.70;99.90
36186;DHT22;22228;53.222;7.446;2023-07-08T15:25:23;37.80;99.90
36186;DHT22;22228;53.222;7.446;2023-07-08T15:27:46;37.30;99.90
36186;DHT22;22228;53.222;7.446;2023-07-08T15:30:15;36.80;99.90
36186;DHT22;22228;53.222;7.446;2023-07-08T15:32:36;36.50;99.90
36186;DHT22;22228;53.222;7.446;2023-07-08T15:35:07;36.30;99.90
36186;DHT22;22228;53.222;7.446;2023-07-08T15:37:37;36.30;99.90
36186;DHT22;22228;53.222;7.446;2023-07-08T15:39:58;36.40;99.90
36186;DHT22;22228;53.222;7.446;2023-07-08T15:42:20;37.00;99.90
36186;DHT22;22228;53.222;7.446;2023-07-08T15:44:43;37.90;99.90
36186;DHT22;22228;53.222;7.446;2023-07-08T15:47:12;39.20;99.90
36186;DHT22;22228;53.222;7.446;2023-07-08T15:49:33;40.20;99.90
36186;DHT22;22228;53.222;7.446;2023-07-08T15:52:18;40.90;99.90
36186;DHT22;22228;53.222;7.446;2023-07-08T15:54:43;42.00;99.90
36186;DHT22;22228;53.222;7.446;2023-07-08T15:57:07;42.70;99.90
36186;DHT22;22228;53.222;7.446;2023-07-08T15:59:29;43.20;99.90
36186;DHT22;22228;53.222;7.446;2023-07-08T16:01:51;43.30;99.90
36186;DHT22;22228;53.222;7.446;2023-07-08T16:04:22;43.10;99.90
36186;DHT22;22228;53.222;7.446;2023-07-08T16:07:09;43.00;99.90
36186;DHT22;22228;53.222;7.446;2023-07-08T16:09:35;42.50;99.90
36186;DHT22;22228;53.222;7.446;2023-07-08T16:12:05;42.20;99.90
36186;DHT22;22228;53.222;7.446;2023-07-08T16:14:26;41.50;99.90
36186;DHT22;22228;53.222;7.446;2023-07-08T16:16:50;40.60;99.90
36186;DHT22;22228;53.222;7.446;2023-07-08T16:19:59;39.60;99.90
36186;DHT22;22228;53.222;7.446;2023-07-08T16:22:20;39.10;99.90
36186;DHT22;22228;53.222;7.446;2023-07-08T16:24:41;39.50;99.90
36186;DHT22;22228;53.222;7.446;2023-07-08T16:27:28;40.20;99.90
36186;DHT22;22228;53.222;7.446;2023-07-08T16:29:48;40.90;99.90
36186;DHT22;22228;53.222;7.446;2023-07-08T16:32:13;41.10;99.90
36186;DHT22;22228;53.222;7.446;2023-07-08T16:34:40;41.00;99.90
36186;DHT22;22228;53.222;7.446;2023-07-08T16:37:08;40.40;99.90
36186;DHT22;22228;53.222;7.446;2023-07-08T16:39:44;39.90;99.90
36186;DHT22;22228;53.222;7.446;2023-07-08T16:42:09;39.60;99.90
36186;DHT22;22228;53.222;7.446;2023-07-08T16:44:35;39.40;99.90
36186;DHT22;22228;53.222;7.446;2023-07-08T16:46:58;39.40;99.90
36186;DHT22;22228;53.222;7.446;2023-07-08T16:49:18;39.30;99.90
36186;DHT22;22228;53.222;7.446;2023-07-08T16:51:39;39.60;99.90
36186;DHT22;22228;53.222;7.446;2023-07-08T16:54:09;40.30;99.90
36186;DHT22;22228;53.222;7.446;2023-07-08T16:56:30;41.10;99.90
36186;DHT22;22228;53.222;7.446;2023-07-08T16:58:52;41.90;99.90
36186;DHT22;22228;53.222;7.446;2023-07-08T17:01:19;42.50;99.90
36186;DHT22;22228;53.222;7.446;2023-07-08T17:04:04;42.70;99.90
36186;DHT22;22228;53.222;7.446;2023-07-08T17:06:33;43.00;99.90
36186;DHT22;22228;53.222;7.446;2023-07-08T17:08:53;43.10;99.90
36186;DHT22;22228;53.222;7.446;2023-07-08T17:11:43;42.70;99.90
36186;DHT22;22228;53.222;7.446;2023-07-08T17:14:07;42.40;99.90
36186;DHT22;22228;53.222;7.446;2023-07-08T17:19:51;42.80;99.90
36186;DHT22;22228;53.222;7.446;2023-07-08T17:22:13;43.10;99.90
36186;DHT22;22228;53.222;7.446;2023-07-08T17:24:59;43.00;99.90
36186;DHT22;22228;53.222;7.446;2023-07-08T17:27:19;42.80;99.90
36186;DHT22;22228;53.222;7.446;2023-07-08T17:29:40;42.80;99.90
36186;DHT22;22228;53.222;7.446;2023-07-08T17:32:02;43.00;99.90
36186;DHT22;22228;53.222;7.446;2023-07-08T17:34:25;42.80;99.90
36186;DHT22;22228;53.222;7.446;2023-07-08T17:37:12;43.00;99.90
36186;DHT22;22228;53.222;7.446;2023-07-08T17:39:32;42.80;99.90
36186;DHT22;22228;53.222;7.446;2023-07-08T17:41:53;42.80;99.90
36186;DHT22;22228;53.222;7.446;2023-07-08T17:44:39;42.80;99.90
36186;DHT22;22228;53.222;7.446;2023-07-08T17:47:01;42.70;99.90
36186;DHT22;22228;53.222;7.446;2023-07-08T17:49:47;42.50;99.90
36186;DHT22;22228;53.222;7.446;2023-07-08T17:52:09;42.40;99.90
36186;DHT22;22228;53.222;7.446;2023-07-08T17:55:02;42.30;99.90
36186;DHT22;22228;53.222;7.446;2023-07-08T17:57:30;41.90;99.90
36186;DHT22;22228;53.222;7.446;2023-07-08T17:59:56;41.60;99.90
36186;DHT22;22228;53.222;7.446;2023-07-08T18:02:17;41.20;99.90
36186;DHT22;22228;53.222;7.446;2023-07-08T18:05:05;41.00;99.90
36186;DHT22;22228;53.222;7.446;2023-07-08T18:07:26;40.90;99.90
36186;DHT22;22228;53.222;7.446;2023-07-08T18:09:46;40.50;99.90
36186;DHT22;22228;53.222;7.446;2023-07-08T18:12:11;40.10;99.90
36186;DHT22;22228;53.222;7.446;2023-07-08T18:14:33;39.60;99.90
36186;DHT22;22228;53.222;7.446;2023-07-08T18:16:53;39.10;99.90
36186;DHT22;22228;53.222;7.446;2023-07-08T18:19:22;38.70;99.90
36186;DHT22;22228;53.222;7.446;2023-07-08T18:21:43;38.00;99.90
36186;DHT22;22228;53.222;7.446;2023-07-08T18:24:31;37.50;99.90
36186;DHT22;22228;53.222;7.446;2023-07-08T18:26:51;36.80;99.90
36186;DHT22;22228;53.222;7.446;2023-07-08T18:29:14;36.20;99.90
36186;DHT22;22228;53.222;7.446;2023-07-08T18:31:35;35.40;99.90
36186;DHT22;22228;53.222;7.446;2023-07-08T18:33:56;34.80;1.00
36186;DHT22;22228;53.222;7.446;2023-07-08T18:36:20;34.30;99.90
36186;DHT22;22228;53.222;7.446;2023-07-08T18:39:04;33.90;1.00
36186;DHT22;22228;53.222;7.446;2023-07-08T18:41:28;33.30;99.90
36186;DHT22;22228;53.222;7.446;2023-07-08T18:47:09;32.60;1.00
36186;DHT22;22228;53.222;7.446;2023-07-08T18:49:30;32.30;1.00
36186;DHT22;22228;53.222;7.446;2023-07-08T18:51:51;31.90;1.00
36186;DHT22;22228;53.222;7.446;2023-07-08T18:54:14;31.60;1.00
36186;DHT22;22228;53.222;7.446;2023-07-08T18:56:34;31.40;57.30
36186;DHT22;22228;53.222;7.446;2023-07-08T18:58:56;31.10;99.90